createdAt,value
2022-10-14T00:01:31.456Z,30.83
2022-10-14T00:04:00.887Z,29.77
2022-10-14T00:06:31.348Z,29.90
2022-10-14T00:09:02.769Z,28.93
2022-10-14T00:11:33.157Z,29.13
2022-10-14T00:14:05.807Z,28.30
2022-10-14T00:16:37.796Z,27.67
2022-10-14T00:19:07.474Z,28.03
2022-10-14T00:21:37.815Z,28.90
2022-10-14T00:24:07.704Z,27.43
2022-10-14T00:26:38.486Z,30.87
2022-10-14T00:29:09.449Z,29.90
2022-10-14T00:31:39.242Z,32.63
2022-10-14T00:34:07.946Z,30.97
2022-10-14T00:36:36.319Z,29.33
2022-10-14T00:39:04.917Z,27.73
2022-10-14T00:41:36.297Z,30.63
2022-10-14T00:44:07.282Z,30.10
2022-10-14T00:46:38.131Z,31.10
2022-10-14T00:49:13.368Z,29.77
2022-10-14T00:51:43.817Z,29.57
2022-10-14T00:54:16.147Z,27.63
2022-10-14T00:56:46.199Z,28.97
2022-10-14T00:59:15.559Z,29.23
2022-10-14T01:01:45.235Z,29.37
2022-10-14T01:04:15.367Z,30.43
2022-10-14T01:06:53.450Z,28.67
2022-10-14T01:09:29.052Z,31.57
2022-10-14T01:12:27.949Z,34.60
2022-10-14T01:15:05.971Z,28.63
2022-10-14T01:17:44.320Z,29.17
2022-10-14T01:20:56.180Z,28.90
2022-10-14T01:23:57.707Z,28.17
2022-10-14T01:26:56.109Z,26.53
2022-10-14T01:29:52.107Z,29.13
2022-10-14T01:32:27.427Z,29.17
2022-10-14T01:35:04.744Z,31.43
2022-10-14T01:37:35.839Z,36.07
2022-10-14T01:40:11.880Z,29.53
2022-10-14T01:42:42.707Z,30.00
2022-10-14T01:45:17.045Z,28.70
2022-10-14T01:47:49.857Z,28.13
2022-10-14T01:50:21.538Z,26.60
2022-10-14T01:52:54.986Z,27.57
2022-10-14T01:55:28.589Z,29.67
2022-10-14T01:57:58.738Z,29.50
2022-10-14T02:00:27.510Z,30.40
2022-10-14T02:02:57.257Z,33.37
2022-10-14T02:05:31.916Z,33.13
2022-10-14T02:08:08.227Z,31.47
2022-10-14T02:10:49.087Z,29.57
2022-10-14T02:13:29.568Z,30.77
2022-10-14T02:16:09.062Z,29.90
2022-10-14T02:18:43.307Z,33.60
2022-10-14T02:21:18.999Z,31.63
2022-10-14T02:23:53.261Z,32.10
2022-10-14T02:26:26.850Z,31.60
2022-10-14T02:28:57.037Z,32.47
2022-10-14T02:31:28.139Z,29.40
2022-10-14T02:34:03.547Z,28.47
2022-10-14T02:36:33.606Z,30.57
2022-10-14T02:39:09.216Z,29.83
2022-10-14T02:41:39.402Z,27.23
2022-10-14T02:44:09.864Z,28.33
2022-10-14T02:46:40.836Z,32.87
2022-10-14T02:49:12.928Z,31.30
2022-10-14T02:51:41.400Z,30.07
2022-10-14T02:54:12.746Z,29.20
2022-10-14T02:56:42.869Z,29.17
2022-10-14T02:59:11.427Z,27.43
2022-10-14T03:01:40.529Z,29.37
2022-10-14T03:04:12.587Z,29.17
2022-10-14T03:06:41.628Z,29.43
2022-10-14T03:09:10.396Z,30.20
2022-10-14T03:11:42.026Z,29.70
2022-10-14T03:14:17.077Z,29.40
2022-10-14T03:16:45.942Z,30.87
2022-10-14T03:19:21.929Z,27.83
2022-10-14T03:21:54.108Z,27.67
2022-10-14T03:24:23.836Z,28.10
2022-10-14T03:27:11.168Z,28.13
2022-10-14T03:29:39.698Z,29.07
2022-10-14T03:32:20.336Z,26.93
2022-10-14T03:35:23.251Z,26.23
2022-10-14T03:37:55.217Z,26.93
2022-10-14T03:40:30.230Z,29.73
2022-10-14T03:43:01.586Z,27.23
2022-10-14T03:45:38.018Z,26.10
2022-10-14T03:48:07.707Z,28.30
2022-10-14T03:50:41.537Z,26.23
2022-10-14T03:53:11.309Z,25.33
2022-10-14T03:55:39.799Z,26.17
2022-10-14T03:58:11.907Z,26.70
2022-10-14T04:00:45.737Z,26.03
2022-10-14T04:03:28.755Z,25.97
2022-10-14T04:05:59.148Z,26.10
2022-10-14T04:08:29.908Z,27.20
2022-10-14T04:11:02.767Z,26.13
2022-10-14T04:13:37.197Z,25.63
2022-10-14T04:16:07.206Z,26.63
2022-10-14T04:18:40.180Z,26.97
2022-10-14T04:21:13.939Z,27.50
2022-10-14T04:23:48.774Z,26.37
2022-10-14T04:26:18.466Z,27.37
2022-10-14T04:28:47.882Z,26.73
2022-10-14T04:31:29.670Z,26.67
2022-10-14T04:34:02.740Z,25.10
2022-10-14T04:36:37.907Z,24.50
2022-10-14T04:39:19.099Z,27.07
2022-10-14T04:41:47.607Z,27.00
2022-10-14T04:44:20.607Z,26.00
2022-10-14T04:46:52.120Z,25.30
2022-10-14T04:49:24.010Z,24.87
2022-10-14T04:52:04.264Z,26.27
2022-10-14T04:54:48.453Z,25.70
2022-10-14T04:57:17.317Z,25.87
2022-10-14T04:59:49.466Z,28.57
2022-10-14T05:02:23.355Z,27.90
2022-10-14T05:04:58.016Z,30.83
2022-10-14T05:07:27.750Z,28.63
2022-10-14T05:10:05.296Z,28.23
2022-10-14T05:12:41.498Z,29.87
2022-10-14T05:15:11.758Z,30.93
2022-10-14T05:18:00.579Z,28.90
2022-10-14T05:20:46.047Z,29.07
2022-10-14T05:23:16.173Z,28.40
2022-10-14T05:25:44.667Z,28.80
2022-10-14T05:28:13.678Z,29.83
2022-10-14T05:30:44.996Z,27.93
2022-10-14T05:33:14.519Z,27.40
2022-10-14T05:35:58.793Z,31.37
2022-10-14T05:38:34.498Z,28.43
2022-10-14T05:41:04.558Z,26.50
2022-10-14T05:43:33.761Z,30.90
2022-10-14T05:46:05.117Z,29.43
2022-10-14T05:48:38.628Z,28.37
2022-10-14T05:51:07.345Z,28.20
2022-10-14T05:53:40.307Z,28.20
2022-10-14T05:56:15.531Z,31.17
2022-10-14T05:58:44.052Z,30.70
2022-10-14T06:01:13.117Z,29.40
2022-10-14T06:03:43.496Z,29.13
2022-10-14T06:06:14.207Z,29.63
2022-10-14T06:08:45.094Z,28.53
2022-10-14T06:11:14.280Z,29.07
2022-10-14T06:13:43.265Z,27.33
2022-10-14T06:16:12.537Z,26.77
2022-10-14T06:18:41.399Z,27.67
2022-10-14T06:21:12.237Z,27.63
2022-10-14T06:23:40.719Z,25.03
2022-10-14T06:26:11.940Z,26.60
2022-10-14T06:28:40.666Z,24.13
2022-10-14T06:31:09.259Z,23.67
2022-10-14T06:33:37.657Z,24.07
2022-10-14T06:36:07.184Z,25.90
2022-10-14T06:38:35.783Z,27.97
2022-10-14T06:41:04.873Z,24.33
2022-10-14T06:43:35.375Z,24.57
2022-10-14T06:46:04.508Z,26.30
2022-10-14T06:48:33.110Z,27.50
2022-10-14T06:51:02.270Z,26.17
2022-10-14T06:53:31.198Z,25.60
2022-10-14T06:56:01.261Z,27.87
2022-10-14T06:58:30.497Z,27.83
2022-10-14T07:01:04.407Z,27.20
2022-10-14T07:03:32.987Z,26.77
2022-10-14T07:06:04.872Z,27.20
2022-10-14T07:08:33.521Z,26.87
2022-10-14T07:11:01.996Z,26.53
2022-10-14T07:13:31.246Z,26.93
2022-10-14T07:15:59.698Z,24.83
2022-10-14T07:18:29.532Z,25.03
2022-10-14T07:20:57.889Z,25.40
2022-10-14T07:23:26.470Z,24.27
2022-10-14T07:25:57.610Z,24.53
2022-10-14T07:28:26.563Z,25.70
2022-10-14T07:30:59.897Z,23.23
2022-10-14T07:33:29.807Z,22.93
2022-10-14T07:36:03.320Z,22.07
2022-10-14T07:38:32.738Z,21.23
2022-10-14T07:41:03.823Z,22.43
2022-10-14T07:43:33.187Z,21.83
2022-10-14T07:46:04.165Z,20.30
2022-10-14T07:48:52.250Z,20.97
2022-10-14T07:51:24.018Z,21.53
2022-10-14T07:53:53.272Z,22.80
2022-10-14T07:56:22.424Z,22.33
2022-10-14T07:58:51.010Z,22.20
2022-10-14T08:01:19.690Z,22.13
2022-10-14T08:03:50.381Z,21.93
2022-10-14T08:06:19.300Z,20.97
2022-10-14T08:08:48.296Z,22.37
2022-10-14T08:11:18.570Z,23.27
2022-10-14T08:13:47.458Z,22.40
2022-10-14T08:16:18.199Z,23.10
2022-10-14T08:18:47.917Z,21.57
2022-10-14T08:21:18.804Z,20.97
2022-10-14T08:23:47.507Z,21.70
2022-10-14T08:26:21.148Z,20.53
2022-10-14T08:28:50.119Z,21.87
2022-10-14T08:31:18.882Z,20.70
2022-10-14T08:33:47.757Z,20.13
2022-10-14T08:36:18.177Z,20.13
2022-10-14T08:38:47.091Z,20.47
2022-10-14T08:41:36.970Z,21.63
2022-10-14T08:44:15.820Z,20.97
2022-10-14T08:46:51.219Z,19.63
2022-10-14T08:49:26.962Z,18.87
2022-10-14T08:51:59.797Z,19.27
2022-10-14T08:54:36.497Z,18.30
2022-10-14T08:57:06.084Z,19.27
2022-10-14T08:59:39.144Z,19.60
2022-10-14T09:02:21.701Z,18.93
2022-10-14T09:04:50.687Z,19.17
2022-10-14T09:07:22.173Z,20.30
2022-10-14T09:09:54.409Z,20.13
2022-10-14T09:12:27.718Z,19.43
2022-10-14T09:15:04.874Z,19.33
2022-10-14T09:17:39.461Z,19.20
2022-10-14T09:20:18.717Z,19.90
2022-10-14T09:22:54.899Z,19.70
2022-10-14T09:25:23.361Z,20.43
2022-10-14T09:27:52.257Z,18.40
2022-10-14T09:30:20.658Z,18.77
2022-10-14T09:32:51.778Z,18.37
2022-10-14T09:35:25.951Z,18.80
2022-10-14T09:37:55.876Z,17.60
2022-10-14T09:40:31.308Z,18.20
2022-10-14T09:43:04.310Z,17.93
2022-10-14T09:45:49.347Z,19.90
2022-10-14T09:48:21.767Z,18.30
2022-10-14T09:50:52.978Z,17.97
2022-10-14T09:53:29.318Z,17.70
2022-10-14T09:56:00.419Z,17.63
2022-10-14T09:58:57.499Z,17.53
2022-10-14T10:01:28.676Z,17.20
2022-10-14T10:03:58.443Z,16.00
2022-10-14T10:06:28.248Z,16.80
2022-10-14T10:09:01.359Z,15.93
2022-10-14T10:11:33.429Z,16.13
2022-10-14T10:14:18.692Z,15.60
2022-10-14T10:16:47.227Z,15.70
2022-10-14T10:19:32.198Z,13.87
2022-10-14T10:22:22.942Z,13.60
2022-10-14T10:25:14.129Z,13.93
2022-10-14T10:27:45.750Z,13.60
2022-10-14T10:30:24.439Z,15.53
2022-10-14T10:33:06.266Z,15.47
2022-10-14T10:35:48.997Z,14.70
2022-10-14T10:38:24.398Z,13.93
2022-10-14T10:41:09.078Z,15.20
2022-10-14T10:43:57.429Z,15.40
2022-10-14T10:46:56.078Z,15.57
2022-10-14T10:49:44.067Z,17.83
2022-10-14T10:52:24.473Z,18.43
2022-10-14T10:54:59.446Z,16.77
2022-10-14T10:57:44.067Z,15.63
2022-10-14T11:00:16.571Z,15.60
2022-10-14T11:03:02.878Z,15.13
2022-10-14T11:05:56.334Z,15.87
2022-10-14T11:09:11.277Z,15.83
2022-10-14T11:12:12.950Z,15.23
2022-10-14T11:15:05.129Z,14.60
2022-10-14T11:17:42.372Z,14.03
2022-10-14T11:20:22.618Z,14.73
2022-10-14T11:23:04.730Z,14.87
2022-10-14T11:25:44.489Z,14.37
2022-10-14T11:28:23.551Z,14.37
2022-10-14T11:31:02.353Z,12.93
2022-10-14T11:33:45.539Z,14.20
2022-10-14T11:36:27.960Z,15.60
2022-10-14T11:39:25.951Z,14.20
2022-10-14T11:42:11.319Z,14.10
2022-10-14T11:44:41.628Z,13.53
2022-10-14T11:47:18.581Z,13.83
2022-10-14T11:49:54.028Z,13.00
2022-10-14T11:52:28.916Z,12.27
2022-10-14T11:55:02.008Z,12.47
2022-10-14T11:57:35.479Z,12.83
2022-10-14T12:00:12.465Z,12.93
2022-10-14T12:02:52.903Z,13.33
2022-10-14T12:05:31.777Z,14.63
2022-10-14T12:08:10.052Z,12.53
2022-10-14T12:10:44.187Z,13.33
2022-10-14T12:13:16.856Z,13.55
2022-10-14T12:15:50.512Z,12.90
2022-10-14T12:18:20.570Z,14.35
2022-10-14T12:20:55.880Z,12.18
2022-10-14T12:23:32.888Z,11.60
2022-10-14T12:26:06.960Z,11.38
2022-10-14T12:28:38.712Z,11.27
2022-10-14T12:31:33.741Z,14.57
2022-10-14T12:34:31.339Z,12.33
2022-10-14T12:37:00.088Z,14.90
2022-10-14T12:39:36.250Z,13.90
2022-10-14T12:42:07.026Z,13.40
2022-10-14T12:44:44.220Z,13.13
2022-10-14T12:47:21.996Z,14.07
2022-10-14T12:49:54.547Z,13.23
2022-10-14T12:52:27.828Z,14.37
2022-10-14T12:54:57.070Z,13.40
2022-10-14T12:57:30.510Z,13.63
2022-10-14T13:00:04.353Z,14.17
2022-10-14T13:02:35.139Z,14.13
2022-10-14T13:05:09.197Z,13.20
2022-10-14T13:07:46.326Z,13.90
2022-10-14T13:10:50.569Z,16.33
2022-10-14T13:13:55.790Z,15.57
2022-10-14T13:17:06.019Z,15.93
2022-10-14T13:19:44.517Z,16.50
2022-10-14T13:22:42.457Z,15.77
2022-10-14T13:25:19.960Z,14.40
2022-10-14T13:28:00.998Z,14.07
2022-10-14T13:30:49.747Z,14.13
2022-10-14T13:33:23.288Z,13.03
2022-10-14T13:36:01.275Z,14.23
2022-10-14T13:38:34.886Z,14.47
2022-10-14T13:41:04.628Z,14.30
2022-10-14T13:43:39.343Z,14.53
2022-10-14T13:46:15.117Z,15.00
2022-10-14T13:48:47.037Z,15.47
2022-10-14T13:51:36.764Z,14.30
2022-10-14T13:54:18.344Z,15.93
2022-10-14T13:57:38.286Z,15.07
2022-10-14T14:02:43.797Z,15.10
2022-10-14T14:05:20.909Z,14.47
2022-10-14T14:11:03.657Z,16.07
2022-10-14T14:13:33.407Z,16.73
2022-10-14T14:16:02.109Z,16.93
2022-10-14T14:18:49.287Z,17.43
2022-10-14T14:21:27.188Z,14.80
2022-10-14T14:23:57.876Z,15.67
2022-10-14T14:26:33.981Z,14.43
2022-10-14T14:29:06.117Z,15.50
2022-10-14T14:34:25.520Z,13.47
2022-10-14T14:37:01.368Z,13.27
2022-10-14T14:39:35.358Z,12.80
2022-10-14T14:42:05.199Z,14.10
2022-10-14T14:44:35.888Z,12.53
2022-10-14T14:47:06.198Z,14.20
2022-10-14T14:49:38.545Z,12.83
2022-10-14T14:52:07.840Z,13.33
2022-10-14T14:54:44.941Z,13.53
2022-10-14T14:57:19.931Z,13.90
2022-10-14T15:00:01.963Z,13.10
2022-10-14T15:02:32.967Z,14.43
2022-10-14T15:05:03.866Z,19.43
2022-10-14T15:07:32.431Z,17.80
2022-10-14T15:10:02.769Z,16.73
2022-10-14T15:12:34.462Z,16.73
2022-10-14T15:15:03.997Z,15.80
2022-10-14T15:17:35.238Z,14.43
2022-10-14T15:20:28.705Z,14.40
2022-10-14T15:22:57.147Z,14.60
2022-10-14T15:25:31.351Z,13.97
2022-10-14T15:28:02.163Z,14.00
2022-10-14T15:30:35.033Z,17.20
2022-10-14T15:33:13.947Z,21.70
2022-10-14T15:35:43.157Z,22.50
2022-10-14T15:38:17.288Z,30.00
2022-10-14T15:40:46.787Z,23.63
2022-10-14T15:43:19.191Z,22.27
2022-10-14T15:46:11.760Z,20.53
2022-10-14T15:48:40.627Z,22.90
2022-10-14T15:51:14.020Z,22.63
2022-10-14T15:53:42.612Z,21.47
2022-10-14T15:56:11.329Z,22.27
2022-10-14T15:58:41.087Z,23.87
2022-10-14T16:01:12.636Z,23.47
2022-10-14T16:03:41.318Z,23.53
2022-10-14T16:06:11.758Z,24.40
2022-10-14T16:08:42.189Z,33.47
2022-10-14T16:11:18.557Z,38.70
2022-10-14T16:13:48.526Z,35.67
2022-10-14T16:16:20.229Z,37.57
2022-10-14T16:18:48.758Z,29.83
2022-10-14T16:21:18.058Z,26.00
2022-10-14T16:23:46.490Z,24.67
2022-10-14T16:26:15.219Z,25.03
2022-10-14T16:28:44.514Z,21.60
2022-10-14T16:31:16.099Z,19.80
2022-10-14T16:33:45.800Z,19.63
2022-10-14T16:36:16.397Z,20.33
2022-10-14T16:38:45.072Z,18.63
2022-10-14T16:41:14.068Z,18.40
2022-10-14T16:43:42.629Z,18.03
2022-10-14T16:46:15.738Z,20.87
2022-10-14T16:48:44.711Z,24.07
2022-10-14T16:51:13.260Z,22.00
2022-10-14T16:53:41.830Z,24.00
2022-10-14T16:56:31.733Z,25.37
2022-10-14T16:59:00.747Z,22.03
2022-10-14T17:01:31.499Z,31.77
2022-10-14T17:04:00.054Z,29.33
2022-10-14T17:06:28.666Z,29.67
2022-10-14T17:08:57.209Z,26.27
2022-10-14T17:11:27.453Z,26.50
2022-10-14T17:13:57.677Z,32.23
2022-10-14T17:16:28.532Z,29.17
2022-10-14T17:18:59.566Z,26.90
2022-10-14T17:21:30.448Z,24.43
2022-10-14T17:24:02.597Z,23.03
2022-10-14T17:26:33.080Z,21.80
2022-10-14T17:29:01.789Z,22.33
2022-10-14T17:31:31.706Z,21.23
2022-10-14T17:34:01.917Z,20.17
2022-10-14T17:36:31.827Z,20.27
2022-10-14T17:39:00.913Z,18.87
2022-10-14T17:41:30.808Z,18.03
2022-10-14T17:44:01.587Z,18.53
2022-10-14T17:46:31.521Z,17.37
2022-10-14T17:49:04.009Z,17.23
2022-10-14T17:51:33.539Z,21.60
2022-10-14T17:54:03.649Z,29.73
2022-10-14T17:56:33.949Z,30.73
2022-10-14T17:59:04.607Z,34.30
2022-10-14T18:01:37.962Z,33.07
2022-10-14T18:04:23.119Z,31.70
2022-10-14T18:06:52.669Z,39.27
2022-10-14T18:09:21.343Z,37.40
2022-10-14T18:14:40.913Z,28.63
2022-10-14T18:17:12.873Z,27.97
2022-10-14T18:19:46.161Z,25.57
2022-10-14T18:22:18.620Z,24.23
2022-10-14T18:24:47.128Z,23.03
2022-10-14T18:27:15.579Z,24.40
2022-10-14T18:29:44.122Z,27.20
2022-10-14T18:32:12.517Z,25.63
2022-10-14T18:34:42.205Z,25.17
2022-10-14T18:37:10.906Z,22.60
2022-10-14T18:39:39.448Z,22.63
2022-10-14T18:42:07.943Z,21.23
2022-10-14T18:44:36.496Z,23.37
2022-10-14T18:47:04.958Z,20.70
2022-10-14T18:49:38.167Z,19.47
2022-10-14T18:52:10.789Z,18.50
2022-10-14T18:54:39.387Z,20.13
2022-10-14T18:57:09.458Z,18.30
2022-10-14T18:59:38.086Z,24.90
2022-10-14T19:02:07.279Z,30.20
2022-10-14T19:04:36.618Z,25.43
2022-10-14T19:07:08.575Z,23.23
2022-10-14T19:09:38.428Z,21.70
2022-10-14T19:12:27.746Z,21.53
2022-10-14T19:14:56.327Z,19.03
2022-10-14T19:17:24.768Z,19.23
2022-10-14T19:19:53.248Z,17.43
2022-10-14T19:22:21.981Z,17.23
2022-10-14T19:24:52.037Z,16.50
2022-10-14T19:27:20.935Z,16.60
2022-10-14T19:29:49.647Z,16.10
2022-10-14T19:32:18.089Z,18.33
2022-10-14T19:34:47.797Z,19.53
2022-10-14T19:37:16.200Z,20.67
2022-10-14T19:39:44.807Z,21.97
2022-10-14T19:42:14.827Z,21.20
2022-10-14T19:44:43.478Z,22.20
2022-10-14T19:47:12.056Z,21.23
2022-10-14T19:49:40.577Z,20.87
2022-10-14T19:52:09.016Z,19.47
2022-10-14T19:54:37.588Z,21.43
2022-10-14T19:57:06.100Z,20.03
2022-10-14T19:59:36.027Z,24.17
2022-10-14T20:02:04.566Z,22.90
2022-10-14T20:04:33.077Z,22.43
2022-10-14T20:07:01.510Z,22.10
2022-10-14T20:09:31.408Z,23.07
2022-10-14T20:12:00.056Z,22.73
2022-10-14T20:14:30.465Z,22.67
2022-10-14T20:17:01.736Z,22.80
2022-10-14T20:19:30.338Z,23.23
2022-10-14T20:22:01.591Z,23.23
2022-10-14T20:24:30.127Z,22.67
2022-10-14T20:26:58.534Z,22.03
2022-10-14T20:29:26.987Z,21.07
2022-10-14T20:31:55.547Z,20.67
2022-10-14T20:34:25.637Z,21.27
2022-10-14T20:36:54.269Z,21.90
2022-10-14T20:39:23.248Z,22.57
2022-10-14T20:41:51.765Z,23.17
2022-10-14T20:44:23.879Z,22.33
2022-10-14T20:46:52.789Z,22.17
2022-10-14T20:49:21.378Z,19.60
2022-10-14T20:51:51.076Z,22.63
2022-10-14T20:54:19.712Z,31.27
2022-10-14T20:56:50.318Z,29.73
2022-10-14T20:59:18.846Z,26.43
2022-10-14T21:01:47.377Z,25.03
2022-10-14T21:04:15.947Z,23.83
2022-10-14T21:06:44.336Z,22.17
2022-10-14T21:09:14.347Z,22.70
2022-10-14T21:11:43.301Z,22.83
2022-10-14T21:14:12.327Z,22.23
2022-10-14T21:16:42.258Z,21.43
2022-10-14T21:19:11.507Z,22.43
2022-10-14T21:21:42.297Z,21.57
2022-10-14T21:24:16.715Z,22.00
2022-10-14T21:26:45.760Z,21.70
2022-10-14T21:29:14.608Z,21.07
2022-10-14T21:31:43.019Z,22.17
2022-10-14T21:34:12.868Z,22.77
2022-10-14T21:36:41.617Z,21.40
2022-10-14T21:39:11.859Z,21.53
2022-10-14T21:41:42.596Z,20.60
2022-10-14T21:44:15.236Z,18.90
2022-10-14T21:46:43.756Z,19.53
2022-10-14T21:49:13.126Z,20.90
2022-10-14T21:51:41.747Z,21.57
2022-10-14T21:54:12.725Z,20.87
2022-10-14T21:56:42.739Z,20.90
2022-10-14T21:59:11.388Z,20.93
2022-10-14T22:01:40.104Z,19.53
2022-10-14T22:04:08.860Z,20.50
2022-10-14T22:06:37.635Z,22.57
2022-10-14T22:09:08.187Z,22.53
2022-10-14T22:11:38.202Z,23.03
2022-10-14T22:14:11.216Z,21.33
2022-10-14T22:16:40.049Z,23.17
2022-10-14T22:19:08.786Z,22.53
2022-10-14T22:21:38.797Z,23.10
2022-10-14T22:26:42.271Z,24.47
2022-10-14T22:29:15.217Z,20.30
2022-10-14T22:31:44.207Z,20.37
2022-10-14T22:34:14.222Z,23.00
2022-10-14T22:36:42.911Z,20.43
2022-10-14T22:39:14.226Z,23.93
2022-10-14T22:41:42.658Z,26.37
2022-10-14T22:44:12.757Z,25.67
2022-10-14T22:46:41.659Z,25.27
2022-10-14T22:49:10.547Z,24.30
2022-10-14T22:51:41.534Z,29.63
2022-10-14T22:54:10.387Z,24.17
2022-10-14T22:56:39.187Z,24.23
2022-10-14T22:59:09.687Z,23.43
2022-10-14T23:01:40.376Z,24.47
2022-10-14T23:04:09.886Z,25.40
2022-10-14T23:06:38.623Z,26.17
2022-10-14T23:09:07.407Z,27.60
2022-10-14T23:11:35.809Z,27.07
2022-10-14T23:14:07.377Z,26.43
2022-10-14T23:16:36.917Z,29.00
2022-10-14T23:19:06.907Z,29.80
2022-10-14T23:21:37.026Z,33.57
2022-10-14T23:24:08.177Z,36.20
2022-10-14T23:26:37.110Z,31.53
2022-10-14T23:29:07.691Z,30.70
2022-10-14T23:31:37.951Z,30.63
2022-10-14T23:34:09.478Z,30.07
2022-10-14T23:36:38.279Z,30.17
2022-10-14T23:39:07.267Z,31.40
2022-10-14T23:41:35.699Z,30.53
2022-10-14T23:44:04.228Z,30.20
2022-10-14T23:46:32.680Z,34.30
2022-10-14T23:49:07.430Z,30.43
2022-10-14T23:51:44.360Z,30.17
2022-10-14T23:54:12.976Z,30.70
2022-10-14T23:56:41.312Z,29.33
2022-10-14T23:59:09.857Z,28.17
